sensor_id;sensor_type;location;lat;lon;timestamp;pressure;altitude;pressure_sealevel;temperature;humidity
11487;BME280;10510;47.942;9.442;2022-12-07T00:01:10;94516.94;;;1.35;100.00
11487;BME280;10510;47.942;9.442;2022-12-07T00:03:11;94518.03;;;1.33;100.00
11487;BME280;10510;47.942;9.442;2022-12-07T00:05:11;94515.31;;;1.34;100.00
11487;BME280;10510;47.942;9.442;2022-12-07T00:07:12;94522.78;;;1.38;100.00
11487;BME280;10510;47.942;9.442;2022-12-07T00:09:16;94518.56;;;1.36;100.00
11487;BME280;10510;47.942;9.442;2022-12-07T00:11:20;94524.78;;;1.34;100.00
11487;BME280;10510;47.942;9.442;2022-12-07T00:13:21;94518.13;;;1.31;100.00
11487;BME280;10510;47.942;9.442;2022-12-07T00:15:22;94516.53;;;1.30;100.00
11487;BME280;10510;47.942;9.442;2022-12-07T00:17:23;94511.47;;;1.29;100.00
11487;BME280;10510;47.942;9.442;2022-12-07T00:19:23;94523.69;;;1.27;100.00
11487;BME280;10510;47.942;9.442;2022-12-07T00:21:28;94518.81;;;1.24;100.00
11487;BME280;10510;47.942;9.442;2022-12-07T00:23:29;94522.19;;;1.24;100.00
11487;BME280;10510;47.942;9.442;2022-12-07T00:25:30;94517.84;;;1.25;100.00
11487;BME280;10510;47.942;9.442;2022-12-07T00:27:30;94509.44;;;1.23;100.00
11487;BME280;10510;47.942;9.442;2022-12-07T00:29:30;94507.66;;;1.23;100.00
11487;BME280;10510;47.942;9.442;2022-12-07T00:31:35;94511.19;;;1.22;100.00
11487;BME280;10510;47.942;9.442;2022-12-07T00:33:38;94514.03;;;1.19;100.00
11487;BME280;10510;47.942;9.442;2022-12-07T00:35:38;94509.00;;;1.18;100.00
11487;BME280;10510;47.942;9.442;2022-12-07T00:37:39;94504.94;;;1.15;100.00
11487;BME280;10510;47.942;9.442;2022-12-07T00:39:39;94501.78;;;1.11;100.00
11487;BME280;10510;47.942;9.442;2022-12-07T00:41:39;94510.34;;;1.12;100.00
11487;BME280;10510;47.942;9.442;2022-12-07T00:43:41;94505.19;;;1.12;100.00
11487;BME280;10510;47.942;9.442;2022-12-07T00:45:41;94510.34;;;1.12;100.00
11487;BME280;10510;47.942;9.442;2022-12-07T00:47:42;94514.66;;;1.11;100.00
11487;BME280;10510;47.942;9.442;2022-12-07T00:49:42;94505.31;;;1.10;100.00
11487;BME280;10510;47.942;9.442;2022-12-07T00:51:42;94505.84;;;1.04;100.00
11487;BME280;10510;47.942;9.442;2022-12-07T00:53:43;94508.53;;;1.03;100.00
11487;BME280;10510;47.942;9.442;2022-12-07T00:55:44;94510.44;;;1.01;100.00
11487;BME280;10510;47.942;9.442;2022-12-07T00:57:44;94509.72;;;0.99;100.00
11487;BME280;10510;47.942;9.442;2022-12-07T00:59:44;94512.44;;;0.97;100.00
11487;BME280;10510;47.942;9.442;2022-12-07T01:01:44;94512.44;;;0.97;100.00
11487;BME280;10510;47.942;9.442;2022-12-07T01:03:45;94512.31;;;0.99;100.00
11487;BME280;10510;47.942;9.442;2022-12-07T01:05:50;94502.97;;;0.98;100.00
11487;BME280;10510;47.942;9.442;2022-12-07T01:07:51;94514.34;;;0.95;100.00
11487;BME280;10510;47.942;9.442;2022-12-07T01:09:51;94508.38;;;0.95;100.00
11487;BME280;10510;47.942;9.442;2022-12-07T01:11:51;94514.44;;;0.94;100.00
11487;BME280;10510;47.942;9.442;2022-12-07T01:13:53;94508.38;;;0.95;100.00
11487;BME280;10510;47.942;9.442;2022-12-07T01:16:00;94507.41;;;0.96;100.00
11487;BME280;10510;47.942;9.442;2022-12-07T01:18:00;94504.84;;;0.96;100.00
11487;BME280;10510;47.942;9.442;2022-12-07T01:20:01;94510.25;;;0.93;100.00
11487;BME280;10510;47.942;9.442;2022-12-07T01:22:01;94512.13;;;0.90;100.00
11487;BME280;10510;47.942;9.442;2022-12-07T01:24:05;94503.47;;;0.92;100.00
11487;BME280;10510;47.942;9.442;2022-12-07T01:26:11;94509.28;;;0.94;100.00
11487;BME280;10510;47.942;9.442;2022-12-07T01:28:12;94515.03;;;0.97;100.00
11487;BME280;10510;47.942;9.442;2022-12-07T01:30:12;94513.13;;;0.99;100.00
11487;BME280;10510;47.942;9.442;2022-12-07T01:32:13;94511.34;;;1.00;100.00
11487;BME280;10510;47.942;9.442;2022-12-07T01:34:13;94511.34;;;1.00;100.00
11487;BME280;10510;47.942;9.442;2022-12-07T01:36:18;94512.06;;;1.02;100.00
11487;BME280;10510;47.942;9.442;2022-12-07T01:38:18;94508.53;;;1.03;100.00
11487;BME280;10510;47.942;9.442;2022-12-07T01:40:19;94515.19;;;1.05;100.00
11487;BME280;10510;47.942;9.442;2022-12-07T01:42:19;94512.50;;;1.07;100.00
11487;BME280;10510;47.942;9.442;2022-12-07T01:44:24;94510.84;;;1.06;100.00
11487;BME280;10510;47.942;9.442;2022-12-07T01:46:25;94508.25;;;1.06;100.00
11487;BME280;10510;47.942;9.442;2022-12-07T01:48:29;94517.63;;;1.07;100.00
11487;BME280;10510;47.942;9.442;2022-12-07T01:50:31;94515.19;;;1.05;100.00
11487;BME280;10510;47.942;9.442;2022-12-07T01:52:33;94515.44;;;1.02;100.00
11487;BME280;10510;47.942;9.442;2022-12-07T01:54:35;94509.63;;;1.00;100.00
11487;BME280;10510;47.942;9.442;2022-12-07T01:56:36;94501.06;;;1.00;100.00
11487;BME280;10510;47.942;9.442;2022-12-07T01:58:38;94510.44;;;1.01;100.00
11487;BME280;10510;47.942;9.442;2022-12-07T02:00:39;94507.59;;;1.04;100.00
11487;BME280;10510;47.942;9.442;2022-12-07T02:03:00;94504.88;;;1.05;100.00
11487;BME280;10510;47.942;9.442;2022-12-07T02:05:05;94505.03;;;1.04;100.00
11487;BME280;10510;47.942;9.442;2022-12-07T02:07:06;94503.25;;;1.04;100.00
11487;BME280;10510;47.942;9.442;2022-12-07T02:09:06;94508.53;;;1.03;100.00
11487;BME280;10510;47.942;9.442;2022-12-07T02:11:07;94506.22;;;1.00;100.00
11487;BME280;10510;47.942;9.442;2022-12-07T02:13:12;94497.13;;;0.96;100.00
11487;BME280;10510;47.942;9.442;2022-12-07T02:15:13;94500.66;;;0.95;100.00
11487;BME280;10510;47.942;9.442;2022-12-07T02:17:29;94495.50;;;0.95;100.00
11487;BME280;10510;47.942;9.442;2022-12-07T02:19:57;94498.06;;;0.95;100.00
11487;BME280;10510;47.942;9.442;2022-12-07T02:22:19;94499.69;;;0.96;100.00
11487;BME280;10510;47.942;9.442;2022-12-07T02:24:57;94491.97;;;0.96;100.00
11487;BME280;10510;47.942;9.442;2022-12-07T02:30:07;94494.44;;;0.97;100.00
11487;BME280;10510;47.942;9.442;2022-12-07T02:36:39;94499.44;;;0.99;100.00
11487;BME280;10510;47.942;9.442;2022-12-07T02:38:59;94502.16;;;0.97;100.00
11487;BME280;10510;47.942;9.442;2022-12-07T02:41:10;94498.06;;;0.95;100.00
11487;BME280;10510;47.942;9.442;2022-12-07T02:43:19;94503.34;;;0.93;100.00
11487;BME280;10510;47.942;9.442;2022-12-07T02:45:22;94499.16;;;0.92;100.00
11487;BME280;10510;47.942;9.442;2022-12-07T02:47:26;94492.34;;;0.91;100.00
11487;BME280;10510;47.942;9.442;2022-12-07T02:49:29;94502.78;;;0.89;100.00
11487;BME280;10510;47.942;9.442;2022-12-07T02:51:31;94507.13;;;0.89;100.00
11487;BME280;10510;47.942;9.442;2022-12-07T02:53:42;94508.88;;;0.88;100.00
11487;BME280;10510;47.942;9.442;2022-12-07T02:55:43;94497.09;;;0.86;100.00
11487;BME280;10510;47.942;9.442;2022-12-07T03:04:27;94490.25;;;0.75;100.00
11487;BME280;10510;47.942;9.442;2022-12-07T03:06:36;94495.53;;;0.74;100.00
11487;BME280;10510;47.942;9.442;2022-12-07T03:08:51;94491.31;;;0.73;100.00
11487;BME280;10510;47.942;9.442;2022-12-07T03:11:03;94493.06;;;0.72;100.00
11487;BME280;10510;47.942;9.442;2022-12-07T03:15:39;94495.75;;;0.71;100.00
11487;BME280;10510;47.942;9.442;2022-12-07T03:18:33;94497.78;;;0.67;100.00
11487;BME280;10510;47.942;9.442;2022-12-07T03:20:38;94497.78;;;0.67;100.00
11487;BME280;10510;47.942;9.442;2022-12-07T03:22:41;94502.38;;;0.63;100.00
11487;BME280;10510;47.942;9.442;2022-12-07T03:24:59;94501.00;;;0.59;100.00
11487;BME280;10510;47.942;9.442;2022-12-07T03:27:07;94495.97;;;0.58;100.00
11487;BME280;10510;47.942;9.442;2022-12-07T03:29:18;94497.03;;;0.55;100.00
11487;BME280;10510;47.942;9.442;2022-12-07T03:31:41;94496.47;;;0.52;100.00
11487;BME280;10510;47.942;9.442;2022-12-07T03:33:49;94498.59;;;0.47;100.00
11487;BME280;10510;47.942;9.442;2022-12-07T03:38:39;94496.41;;;0.42;100.00
11487;BME280;10510;47.942;9.442;2022-12-07T03:40:46;94492.34;;;0.39;100.00
11487;BME280;10510;47.942;9.442;2022-12-07T03:42:50;94492.59;;;0.36;100.00
11487;BME280;10510;47.942;9.442;2022-12-07T03:44:51;94490.94;;;0.35;100.00
11487;BME280;10510;47.942;9.442;2022-12-07T03:51:20;94484.81;;;0.27;100.00
11487;BME280;10510;47.942;9.442;2022-12-07T03:53:29;94483.31;;;0.24;100.00
11487;BME280;10510;47.942;9.442;2022-12-07T03:55:35;94486.78;;;0.23;100.00
11487;BME280;10510;47.942;9.442;2022-12-07T03:57:38;94490.56;;;0.19;100.00
11487;BME280;10510;47.942;9.442;2022-12-07T03:59:41;94487.28;;;0.17;100.00
11487;BME280;10510;47.942;9.442;2022-12-07T04:01:44;94491.50;;;0.18;100.00
11487;BME280;10510;47.942;9.442;2022-12-07T04:03:44;94495.81;;;0.17;100.00
11487;BME280;10510;47.942;9.442;2022-12-07T04:05:45;94485.66;;;0.16;100.00
11487;BME280;10510;47.942;9.442;2022-12-07T04:07:46;94495.38;;;0.12;100.00
11487;BME280;10510;47.942;9.442;2022-12-07T04:09:46;94493.06;;;0.09;100.00
11487;BME280;10510;47.942;9.442;2022-12-07T04:11:46;94500.88;;;0.08;100.00
11487;BME280;10510;47.942;9.442;2022-12-07T04:13:47;94498.56;;;0.05;100.00
11487;BME280;10510;47.942;9.442;2022-12-07T04:16:06;94502.06;;;0.04;100.00
11487;BME280;10510;47.942;9.442;2022-12-07T04:18:06;94499.63;;;0.02;100.00
11487;BME280;10510;47.942;9.442;2022-12-07T04:20:07;94503.25;;;-0.01;100.00
11487;BME280;10510;47.942;9.442;2022-12-07T04:22:08;94494.84;;;-0.03;100.00
11487;BME280;10510;47.942;9.442;2022-12-07T04:24:08;94498.34;;;-0.04;100.00
11487;BME280;10510;47.942;9.442;2022-12-07T04:26:08;94489.97;;;-0.06;100.00
11487;BME280;10510;47.942;9.442;2022-12-07T04:28:09;94493.59;;;-0.08;100.00
11487;BME280;10510;47.942;9.442;2022-12-07T04:30:09;94493.69;;;-0.10;100.00
11487;BME280;10510;47.942;9.442;2022-12-07T04:32:09;94492.88;;;-0.10;100.00
11487;BME280;10510;47.942;9.442;2022-12-07T04:34:10;94491.38;;;-0.13;100.00
11487;BME280;10510;47.942;9.442;2022-12-07T04:36:11;94493.25;;;-0.15;100.00
11487;BME280;10510;47.942;9.442;2022-12-07T04:38:11;94494.31;;;-0.17;100.00
11487;BME280;10510;47.942;9.442;2022-12-07T04:40:11;94492.56;;;-0.17;100.00
11487;BME280;10510;47.942;9.442;2022-12-07T04:42:14;94491.63;;;-0.16;100.00
11487;BME280;10510;47.942;9.442;2022-12-07T04:44:15;94490.66;;;-0.15;100.00
11487;BME280;10510;47.942;9.442;2022-12-07T04:46:16;94487.44;;;-0.17;100.00
11487;BME280;10510;47.942;9.442;2022-12-07T04:48:16;94484.84;;;-0.17;100.00
11487;BME280;10510;47.942;9.442;2022-12-07T04:50:16;94490.81;;;-0.16;100.00
11487;BME280;10510;47.942;9.442;2022-12-07T04:52:17;94489.75;;;-0.14;100.00
11487;BME280;10510;47.942;9.442;2022-12-07T04:54:17;94486.22;;;-0.13;100.00
11487;BME280;10510;47.942;9.442;2022-12-07T04:56:18;94488.69;;;-0.11;100.00
11487;BME280;10510;47.942;9.442;2022-12-07T04:58:18;94482.59;;;-0.10;100.00
11487;BME280;10510;47.942;9.442;2022-12-07T05:00:19;94485.06;;;-0.09;100.00
11487;BME280;10510;47.942;9.442;2022-12-07T05:02:19;94494.41;;;-0.08;100.00
11487;BME280;10510;47.942;9.442;2022-12-07T05:04:19;94493.59;;;-0.08;100.00
11487;BME280;10510;47.942;9.442;2022-12-07T05:06:19;94497.69;;;-0.06;100.00
11487;BME280;10510;47.942;9.442;2022-12-07T05:08:20;94490.06;;;-0.07;100.00
11487;BME280;10510;47.942;9.442;2022-12-07T05:10:21;94496.84;;;-0.06;100.00
11487;BME280;10510;47.942;9.442;2022-12-07T05:12:21;94493.47;;;-0.07;100.00
11487;BME280;10510;47.942;9.442;2022-12-07T05:14:21;94490.06;;;-0.07;100.00
11487;BME280;10510;47.942;9.442;2022-12-07T05:16:21;94489.25;;;-0.08;100.00
11487;BME280;10510;47.942;9.442;2022-12-07T05:18:22;94489.97;;;-0.06;100.00
11487;BME280;10510;47.942;9.442;2022-12-07T05:20:22;94493.34;;;-0.05;100.00
11487;BME280;10510;47.942;9.442;2022-12-07T05:22:22;94495.09;;;-0.06;100.00
11487;BME280;10510;47.942;9.442;2022-12-07T05:24:25;94496.72;;;-0.05;100.00
11487;BME280;10510;47.942;9.442;2022-12-07T05:26:25;94492.28;;;-0.03;100.00
11487;BME280;10510;47.942;9.442;2022-12-07T05:28:26;94491.59;;;-0.05;100.00
11487;BME280;10510;47.942;9.442;2022-12-07T05:30:26;94495.66;;;-0.02;100.00
11487;BME280;10510;47.942;9.442;2022-12-07T05:32:27;94492.97;;;-0.01;100.00
11487;BME280;10510;47.942;9.442;2022-12-07T05:34:27;94492.84;;;0.01;100.00
11487;BME280;10510;47.942;9.442;2022-12-07T05:36:27;94492.03;;;0.01;100.00
11487;BME280;10510;47.942;9.442;2022-12-07T05:38:28;94494.72;;;-0.01;100.00
11487;BME280;10510;47.942;9.442;2022-12-07T05:40:29;94492.97;;;-0.01;100.00
11487;BME280;10510;47.942;9.442;2022-12-07T05:42:29;94497.19;;;0.01;100.00
11487;BME280;10510;47.942;9.442;2022-12-07T05:44:29;94504.91;;;0.01;100.00
11487;BME280;10510;47.942;9.442;2022-12-07T05:46:29;94501.38;;;0.02;100.00
11487;BME280;10510;47.942;9.442;2022-12-07T05:48:30;94498.81;;;0.02;100.00
11487;BME280;10510;47.942;9.442;2022-12-07T05:50:30;94500.31;;;0.04;100.00
11487;BME280;10510;47.942;9.442;2022-12-07T05:52:31;94496.94;;;0.04;100.00
11487;BME280;10510;47.942;9.442;2022-12-07T05:54:31;94496.94;;;0.04;100.00
11487;BME280;10510;47.942;9.442;2022-12-07T05:56:32;94499.50;;;0.04;100.00
11487;BME280;10510;47.942;9.442;2022-12-07T05:58:32;94506.16;;;0.06;100.00
11487;BME280;10510;47.942;9.442;2022-12-07T06:00:51;94501.81;;;0.07;100.00
11487;BME280;10510;47.942;9.442;2022-12-07T06:02:51;94501.03;;;0.06;100.00
11487;BME280;10510;47.942;9.442;2022-12-07T06:04:51;94501.69;;;0.08;100.00
11487;BME280;10510;47.942;9.442;2022-12-07T06:06:52;94499.81;;;0.10;100.00
11487;BME280;10510;47.942;9.442;2022-12-07T06:08:52;94505.66;;;0.12;100.00
11487;BME280;10510;47.942;9.442;2022-12-07T06:10:53;94497.00;;;0.13;100.00
11487;BME280;10510;47.942;9.442;2022-12-07T06:13:13;94505.66;;;0.12;100.00
11487;BME280;10510;47.942;9.442;2022-12-07T06:15:13;94505.66;;;0.12;100.00
11487;BME280;10510;47.942;9.442;2022-12-07T06:17:14;94506.47;;;0.13;100.00
11487;BME280;10510;47.942;9.442;2022-12-07T06:19:14;94504.81;;;0.12;100.00
11487;BME280;10510;47.942;9.442;2022-12-07T06:21:15;94498.19;;;0.09;100.00
11487;BME280;10510;47.942;9.442;2022-12-07T06:23:15;94504.97;;;0.10;100.00
11487;BME280;10510;47.942;9.442;2022-12-07T06:25:15;94501.34;;;0.13;100.00
11487;BME280;10510;47.942;9.442;2022-12-07T06:27:16;94506.34;;;0.14;100.00
11487;BME280;10510;47.942;9.442;2022-12-07T06:29:16;94505.41;;;0.15;100.00
11487;BME280;10510;47.942;9.442;2022-12-07T06:31:17;94506.09;;;0.17;100.00
11487;BME280;10510;47.942;9.442;2022-12-07T06:33:17;94509.50;;;0.18;100.00
11487;BME280;10510;47.942;9.442;2022-12-07T06:35:18;94507.75;;;0.18;100.00
11487;BME280;10510;47.942;9.442;2022-12-07T06:37:18;94514.63;;;0.18;100.00
11487;BME280;10510;47.942;9.442;2022-12-07T06:39:23;94519.78;;;0.18;100.00
11487;BME280;10510;47.942;9.442;2022-12-07T06:41:24;94513.81;;;0.17;100.00
11487;BME280;10510;47.942;9.442;2022-12-07T06:43:24;94514.63;;;0.18;100.00
11487;BME280;10510;47.942;9.442;2022-12-07T06:45:24;94519.78;;;0.18;100.00
11487;BME280;10510;47.942;9.442;2022-12-07T06:47:24;94511.94;;;0.19;100.00
11487;BME280;10510;47.942;9.442;2022-12-07T06:49:25;94513.56;;;0.20;100.00
11487;BME280;10510;47.942;9.442;2022-12-07T06:51:26;94517.88;;;0.20;100.00
11487;BME280;10510;47.942;9.442;2022-12-07T06:53:26;94518.69;;;0.20;100.00
11487;BME280;10510;47.942;9.442;2022-12-07T06:55:26;94521.16;;;0.22;100.00
11487;BME280;10510;47.942;9.442;2022-12-07T06:57:26;94516.97;;;0.21;100.00
11487;BME280;10510;47.942;9.442;2022-12-07T06:59:27;94519.53;;;0.21;100.00
11487;BME280;10510;47.942;9.442;2022-12-07T07:01:27;94512.75;;;0.20;100.00
11487;BME280;10510;47.942;9.442;2022-12-07T07:03:28;94519.53;;;0.21;100.00
11487;BME280;10510;47.942;9.442;2022-12-07T07:05:28;94516.00;;;0.22;100.00
11487;BME280;10510;47.942;9.442;2022-12-07T07:07:28;94520.22;;;0.23;100.00
11487;BME280;10510;47.942;9.442;2022-12-07T07:09:29;94521.03;;;0.23;100.00
11487;BME280;10510;47.942;9.442;2022-12-07T07:11:29;94527.91;;;0.23;100.00
11487;BME280;10510;47.942;9.442;2022-12-07T07:13:30;94532.25;;;0.22;100.00
11487;BME280;10510;47.942;9.442;2022-12-07T07:15:30;94532.25;;;0.22;100.00
11487;BME280;10510;47.942;9.442;2022-12-07T07:17:31;94529.56;;;0.24;100.00
11487;BME280;10510;47.942;9.442;2022-12-07T07:19:31;94526.06;;;0.25;100.00
11487;BME280;10510;47.942;9.442;2022-12-07T07:21:31;94531.09;;;0.27;100.00
11487;BME280;10510;47.942;9.442;2022-12-07T07:23:32;94531.19;;;0.25;100.00
11487;BME280;10510;47.942;9.442;2022-12-07T07:25:32;94524.19;;;0.27;100.00
11487;BME280;10510;47.942;9.442;2022-12-07T07:27:33;94527.44;;;0.29;100.00
11487;BME280;10510;47.942;9.442;2022-12-07T07:29:33;94529.06;;;0.30;100.00
11487;BME280;10510;47.942;9.442;2022-12-07T07:31:33;94523.94;;;0.30;100.00
11487;BME280;10510;47.942;9.442;2022-12-07T07:33:35;94525.69;;;0.30;100.00
11487;BME280;10510;47.942;9.442;2022-12-07T07:35:35;94524.75;;;0.31;100.00
11487;BME280;10510;47.942;9.442;2022-12-07T07:37:36;94526.38;;;0.32;100.00
11487;BME280;10510;47.942;9.442;2022-12-07T07:39:36;94533.97;;;0.33;100.00
11487;BME280;10510;47.942;9.442;2022-12-07T07:41:36;94535.59;;;0.34;100.00
11487;BME280;10510;47.942;9.442;2022-12-07T07:43:37;94533.03;;;0.34;100.00
11487;BME280;10510;47.942;9.442;2022-12-07T07:45:37;94539.94;;;0.34;100.00
11487;BME280;10510;47.942;9.442;2022-12-07T07:47:37;94528.69;;;0.35;100.00
11487;BME280;10510;47.942;9.442;2022-12-07T07:49:38;94536.84;;;0.40;100.00
11487;BME280;10510;47.942;9.442;2022-12-07T07:51:38;94527.28;;;0.42;100.00
11487;BME280;10510;47.942;9.442;2022-12-07T07:53:38;94530.50;;;0.44;100.00
11487;BME280;10510;47.942;9.442;2022-12-07T07:55:39;94542.56;;;0.43;100.00
11487;BME280;10510;47.942;9.442;2022-12-07T07:57:39;94545.28;;;0.42;100.00
11487;BME280;10510;47.942;9.442;2022-12-07T07:59:40;94546.19;;;0.41;100.00
11487;BME280;10510;47.942;9.442;2022-12-07T08:01:40;94544.47;;;0.41;100.00
11487;BME280;10510;47.942;9.442;2022-12-07T08:03:40;94540.94;;;0.42;100.00
11487;BME280;10510;47.942;9.442;2022-12-07T08:05:41;94528.88;;;0.43;100.00
11487;BME280;10510;47.942;9.442;2022-12-07T08:07:41;94532.16;;;0.45;100.00
11487;BME280;10510;47.942;9.442;2022-12-07T08:09:41;94546.66;;;0.46;100.00
11487;BME280;10510;47.942;9.442;2022-12-07T08:11:42;94538.13;;;0.45;100.00
11487;BME280;10510;47.942;9.442;2022-12-07T08:13:45;94547.44;;;0.47;100.00
11487;BME280;10510;47.942;9.442;2022-12-07T08:15:47;94543.97;;;0.48;100.00
11487;BME280;10510;47.942;9.442;2022-12-07T08:17:48;94549.09;;;0.48;100.00
11487;BME280;10510;47.942;9.442;2022-12-07T08:19:48;94549.22;;;0.46;100.00
11487;BME280;10510;47.942;9.442;2022-12-07T08:21:48;94553.53;;;0.45;100.00
11487;BME280;10510;47.942;9.442;2022-12-07T08:23:48;94553.41;;;0.47;100.00
11487;BME280;10510;47.942;9.442;2022-12-07T08:25:49;94554.91;;;0.50;100.00
11487;BME280;10510;47.942;9.442;2022-12-07T08:27:50;94562.78;;;0.48;100.00
11487;BME280;10510;47.942;9.442;2022-12-07T08:29:51;94563.34;;;0.52;100.00
11487;BME280;10510;47.942;9.442;2022-12-07T08:31:51;94553.59;;;0.55;100.00
11487;BME280;10510;47.942;9.442;2022-12-07T08:33:52;94549.03;;;0.59;100.00
11487;BME280;10510;47.942;9.442;2022-12-07T08:35:52;94555.00;;;0.59;100.00
11487;BME280;10510;47.942;9.442;2022-12-07T08:37:52;94545.28;;;0.63;100.00
11487;BME280;10510;47.942;9.442;2022-12-07T08:39:53;94551.25;;;0.63;100.00
11487;BME280;10510;47.942;9.442;2022-12-07T08:41:54;94557.91;;;0.66;100.00
11487;BME280;10510;47.942;9.442;2022-12-07T08:43:54;94557.66;;;0.69;100.00
11487;BME280;10510;47.942;9.442;2022-12-07T08:48:08;94557.38;;;0.72;100.00
11487;BME280;10510;47.942;9.442;2022-12-07T08:50:11;94552.69;;;0.77;100.00
11487;BME280;10510;47.942;9.442;2022-12-07T08:52:12;94557.34;;;0.83;100.00
11487;BME280;10510;47.942;9.442;2022-12-07T08:54:14;94565.50;;;0.88;100.00
11487;BME280;10510;47.942;9.442;2022-12-07T08:56:16;94554.00;;;0.93;100.00
11487;BME280;10510;47.942;9.442;2022-12-07T08:58:16;94561.22;;;0.99;100.00
11487;BME280;10510;47.942;9.442;2022-12-07T09:00:17;94562.47;;;1.04;100.00
11487;BME280;10510;47.942;9.442;2022-12-07T09:02:18;94559.06;;;1.04;100.00
11487;BME280;10510;47.942;9.442;2022-12-07T09:04:18;94559.75;;;1.06;100.00
11487;BME280;10510;47.942;9.442;2022-12-07T09:06:18;94552.03;;;1.06;100.00
11487;BME280;10510;47.942;9.442;2022-12-07T09:08:19;94553.16;;;1.13;100.00
11487;BME280;10510;47.942;9.442;2022-12-07T09:10:20;94561.06;;;1.21;100.00
11487;BME280;10510;47.942;9.442;2022-12-07T09:12:20;94563.00;;;1.29;100.00
11487;BME280;10510;47.942;9.442;2022-12-07T09:14:22;94561.66;;;1.34;100.00
11487;BME280;10510;47.942;9.442;2022-12-07T09:16:22;94560.06;;;1.43;100.00
11487;BME280;10510;47.942;9.442;2022-12-07T09:18:23;94561.31;;;1.49;100.00
11487;BME280;10510;47.942;9.442;2022-12-07T09:20:24;94560.78;;;1.55;100.00
11487;BME280;10510;47.942;9.442;2022-12-07T09:22:28;94558.50;;;1.62;100.00
11487;BME280;10510;47.942;9.442;2022-12-07T09:24:28;94558.81;;;1.68;100.00
11487;BME280;10510;47.942;9.442;2022-12-07T09:26:29;94565.75;;;1.77;100.00
11487;BME280;10510;47.942;9.442;2022-12-07T09:28:30;94566.31;;;1.81;100.00
11487;BME280;10510;47.942;9.442;2022-12-07T09:30:31;94565.50;;;1.80;100.00
11487;BME280;10510;47.942;9.442;2022-12-07T09:32:31;94557.34;;;1.85;100.00
11487;BME280;10510;47.942;9.442;2022-12-07T09:34:31;94557.50;;;1.93;100.00
11487;BME280;10510;47.942;9.442;2022-12-07T09:36:32;94550.75;;;2.02;100.00
11487;BME280;10510;47.942;9.442;2022-12-07T09:38:33;94546.13;;;2.05;100.00
11487;BME280;10510;47.942;9.442;2022-12-07T09:40:33;94546.44;;;2.12;100.00
11487;BME280;10510;47.942;9.442;2022-12-07T09:42:36;94552.41;;;2.22;100.00
11487;BME280;10510;47.942;9.442;2022-12-07T09:44:39;94550.38;;;2.36;100.00
11487;BME280;10510;47.942;9.442;2022-12-07T09:46:42;94535.97;;;2.43;100.00
11487;BME280;10510;47.942;9.442;2022-12-07T09:48:43;94534.50;;;2.50;100.00
11487;BME280;10510;47.942;9.442;2022-12-07T09:50:44;94537.19;;;2.58;100.00
11487;BME280;10510;47.942;9.442;2022-12-07T09:52:45;94528.78;;;2.56;100.00
11487;BME280;10510;47.942;9.442;2022-12-07T09:54:49;94531.38;;;2.56;100.00
11487;BME280;10510;47.942;9.442;2022-12-07T09:56:50;94530.16;;;2.50;100.00
11487;BME280;10510;47.942;9.442;2022-12-07T09:58:58;94528.38;;;2.61;100.00
11487;BME280;10510;47.942;9.442;2022-12-07T10:01:15;94531.75;;;2.81;100.00
11487;BME280;10510;47.942;9.442;2022-12-07T10:03:16;94522.47;;;2.98;100.00
11487;BME280;10510;47.942;9.442;2022-12-07T10:05:20;94517.00;;;3.10;100.00
11487;BME280;10510;47.942;9.442;2022-12-07T10:07:22;94528.38;;;3.17;100.00
11487;BME280;10510;47.942;9.442;2022-12-07T10:09:22;94524.44;;;3.23;100.00
11487;BME280;10510;47.942;9.442;2022-12-07T10:11:22;94518.59;;;3.21;100.00
11487;BME280;10510;47.942;9.442;2022-12-07T10:13:49;94519.94;;;3.25;100.00
11487;BME280;10510;47.942;9.442;2022-12-07T10:15:57;94521.53;;;3.36;100.00
11487;BME280;10510;47.942;9.442;2022-12-07T10:17:57;94513.81;;;3.26;100.00
11487;BME280;10510;47.942;9.442;2022-12-07T10:22:16;94507.72;;;3.27;100.00
11487;BME280;10510;47.942;9.442;2022-12-07T10:24:16;94504.28;;;3.36;100.00
11487;BME280;10510;47.942;9.442;2022-12-07T10:26:48;94503.53;;;3.44;100.00
11487;BME280;10510;47.942;9.442;2022-12-07T10:28:50;94510.94;;;3.39;100.00
11487;BME280;10510;47.942;9.442;2022-12-07T10:31:02;94507.38;;;3.40;100.00
11487;BME280;10510;47.942;9.442;2022-12-07T10:33:27;94504.13;;;3.38;100.00
11487;BME280;10510;47.942;9.442;2022-12-07T10:35:30;94504.13;;;3.38;100.00
11487;BME280;10510;47.942;9.442;2022-12-07T10:37:40;94499.22;;;3.45;100.00
11487;BME280;10510;47.942;9.442;2022-12-07T10:42:02;94496.88;;;3.51;100.00
11487;BME280;10510;47.942;9.442;2022-12-07T10:44:02;94501.06;;;3.52;100.00
11487;BME280;10510;47.942;9.442;2022-12-07T10:46:27;94486.94;;;3.47;100.00
11487;BME280;10510;47.942;9.442;2022-12-07T10:52:56;94470.91;;;3.43;100.00
11487;BME280;10510;47.942;9.442;2022-12-07T10:55:04;94479.63;;;3.42;100.00
11487;BME280;10510;47.942;9.442;2022-12-07T10:57:27;94470.25;;;3.41;100.00
11487;BME280;10510;47.942;9.442;2022-12-07T10:59:56;94470.69;;;3.36;100.00
11487;BME280;10510;47.942;9.442;2022-12-07T11:02:35;94467.41;;;3.34;100.00
11487;BME280;10510;47.942;9.442;2022-12-07T11:05:06;94470.34;;;3.22;100.00
11487;BME280;10510;47.942;9.442;2022-12-07T11:07:34;94463.94;;;3.26;100.00
11487;BME280;10510;47.942;9.442;2022-12-07T11:09:57;94466.50;;;3.35;100.00
11487;BME280;10510;47.942;9.442;2022-12-07T11:14:16;94458.34;;;3.30;100.00
11487;BME280;10510;47.942;9.442;2022-12-07T11:16:45;94463.16;;;3.15;100.00
11487;BME280;10510;47.942;9.442;2022-12-07T11:19:14;94463.19;;;3.06;100.00
11487;BME280;10510;47.942;9.442;2022-12-07T11:24:01;94454.44;;;3.16;100.00
11487;BME280;10510;47.942;9.442;2022-12-07T11:30:44;94444.81;;;3.09;100.00
11487;BME280;10510;47.942;9.442;2022-12-07T11:35:33;94445.56;;;3.01;100.00
11487;BME280;10510;47.942;9.442;2022-12-07T11:37:37;94444.00;;;3.08;100.00
11487;BME280;10510;47.942;9.442;2022-12-07T11:39:48;94446.03;;;3.14;100.00
11487;BME280;10510;47.942;9.442;2022-12-07T11:41:57;94447.00;;;3.13;100.00